Pagina principale
METAR-TAF:

METAR-TAF

Aeroporti :

Kecskemét, Ungheria

latitudine: 46-55N, longitudine: 019-45E, altezza: 113 m

Osservazione

Il bollettino è stato emesso 51 minuti fa, alle 05:45 UTC
Vento 6 kt da nord-est
Temperature 11°C
Umidità 35%
Pressione 1029 hPa
Visibilità 10 km o più
nessuna nube inferiore a 1500 m e nessun cumulonembo

METAR: LHKE 200545Z 04006KT CAVOK 11/M04 Q1029 NOSIG RMK BLU

Ora: 08:36 (06:36 UTC)

Previsione

Il bollettino è stato emesso 1 ora e 21 minuti fa, alle 05:15 UTC
Previsione valida dal 20 alle 06 UTC al 20 alle 15 UTC
Vento 3 kt da direzioni variabili
Visibilità 10 km o più
nessuna nube inferiore a 1500 m e nessun cumulonembo
Evoluzione graduale
dal 20 alle 08 UTC al 20 alle 10 UTC
Vento 7 kt da nord/nord-est

TAF: LHKE 200515Z 2006/2015 VRB03KT CAVOK BECMG 2008/2010 03007KT

Osservazioni e previsioni meteorologiche di più di 4000 aeroporti (messaggi METAR e TAF).

Le stazioni disponibili sono rappresentate dai dischi gialli e rossi sulla carta.

Puntare il mouse per vedere il nome della stazione.

Clicca sopra per visualizzare le osservazioni e previsioni meteorologiche.

Per cambiare la mappa : fare clic sui pulsanti verdi con una croce nera per ingrandire, il pulsante verde con un trattino per diminuire, o sulla freccia verde per le mappe adiacenti.


METAR-TAF: